Terminal Aerodrome Forecast
Issued by NWS Sterling, VA

Current Version | Previous Version | Graphics & Text | Print | Product List | Glossary On
Versions: 1 2 3 4 5 6 7 8 9 10 11 12 13 14 15 16 17 18 19 20 21 22 23 24 25 26 27 28 29 30 31
000
FTUS41 KLWX 041920 AAA
TAFIAD
TAF AMD
KIAD 041920Z 0419/0524 VRB03KT P6SM -SHRA VCTS OVC035CB
      TEMPO 0419/0421 VRB25KT 3SM TSRA OVC025CB
     FM042200 33004KT P6SM BKN110
     FM050000 03004KT P6SM BKN090
     FM050700 00000KT 1 1/2SM BR BKN250
     FM051300 VRB03KT P6SM BKN250=

USA.gov is the U.S. government's official web portal to all federal, state and local government web resources and services.